sensor_id;sensor_type;location;lat;lon;timestamp;P1;durP1;ratioP1;P2;durP2;ratioP2
26157;SDS011;67284;44.782;10.282;2024-03-08T00:02:41;5.97;;;3.72;;
26157;SDS011;67284;44.782;10.282;2024-03-08T00:07:40;4.38;;;3.17;;
26157;SDS011;67284;44.782;10.282;2024-03-08T00:12:33;5.32;;;2.90;;
26157;SDS011;67284;44.782;10.282;2024-03-08T00:17:25;3.75;;;3.05;;
26157;SDS011;67284;44.782;10.282;2024-03-08T00:22:17;5.65;;;2.80;;
26157;SDS011;67284;44.782;10.282;2024-03-08T00:27:09;4.32;;;3.47;;
26157;SDS011;67284;44.782;10.282;2024-03-08T00:32:01;4.78;;;3.50;;
26157;SDS011;67284;44.782;10.282;2024-03-08T00:36:53;7.60;;;3.33;;
26157;SDS011;67284;44.782;10.282;2024-03-08T00:41:45;5.50;;;3.00;;
26157;SDS011;67284;44.782;10.282;2024-03-08T00:46:37;4.47;;;3.13;;
26157;SDS011;67284;44.782;10.282;2024-03-08T00:51:29;3.15;;;2.63;;
26157;SDS011;67284;44.782;10.282;2024-03-08T00:56:21;3.80;;;3.15;;
26157;SDS011;67284;44.782;10.282;2024-03-08T01:01:13;6.15;;;3.33;;
26157;SDS011;67284;44.782;10.282;2024-03-08T01:06:07;5.47;;;2.90;;
26157;SDS011;67284;44.782;10.282;2024-03-08T01:10:59;6.80;;;3.30;;
26157;SDS011;67284;44.782;10.282;2024-03-08T01:15:51;4.90;;;3.55;;
26157;SDS011;67284;44.782;10.282;2024-03-08T01:20:43;7.22;;;3.78;;
26157;SDS011;67284;44.782;10.282;2024-03-08T01:25:35;10.80;;;4.63;;
26157;SDS011;67284;44.782;10.282;2024-03-08T01:30:27;6.10;;;3.88;;
26157;SDS011;67284;44.782;10.282;2024-03-08T01:35:19;9.25;;;4.60;;
26157;SDS011;67284;44.782;10.282;2024-03-08T01:40:13;7.80;;;5.38;;
26157;SDS011;67284;44.782;10.282;2024-03-08T01:45:06;8.63;;;5.78;;
26157;SDS011;67284;44.782;10.282;2024-03-08T01:49:59;12.30;;;7.00;;
26157;SDS011;67284;44.782;10.282;2024-03-08T01:54:52;15.48;;;8.40;;
26157;SDS011;67284;44.782;10.282;2024-03-08T01:59:45;21.23;;;10.25;;
26157;SDS011;67284;44.782;10.282;2024-03-08T02:04:38;17.65;;;9.57;;
26157;SDS011;67284;44.782;10.282;2024-03-08T02:09:30;20.13;;;11.43;;
26157;SDS011;67284;44.782;10.282;2024-03-08T02:14:22;23.02;;;12.95;;
26157;SDS011;67284;44.782;10.282;2024-03-08T02:19:15;22.92;;;14.20;;
26157;SDS011;67284;44.782;10.282;2024-03-08T02:24:06;24.42;;;13.52;;
26157;SDS011;67284;44.782;10.282;2024-03-08T02:28:59;25.38;;;14.35;;
26157;SDS011;67284;44.782;10.282;2024-03-08T02:33:50;23.15;;;13.88;;
26157;SDS011;67284;44.782;10.282;2024-03-08T02:38:42;31.67;;;15.32;;
26157;SDS011;67284;44.782;10.282;2024-03-08T02:43:34;25.33;;;14.27;;
26157;SDS011;67284;44.782;10.282;2024-03-08T02:48:26;23.17;;;12.85;;
26157;SDS011;67284;44.782;10.282;2024-03-08T02:53:18;24.85;;;12.85;;
26157;SDS011;67284;44.782;10.282;2024-03-08T02:58:10;21.33;;;12.60;;
26157;SDS011;67284;44.782;10.282;2024-03-08T03:03:03;21.23;;;10.98;;
26157;SDS011;67284;44.782;10.282;2024-03-08T03:07:55;20.23;;;10.80;;
26157;SDS011;67284;44.782;10.282;2024-03-08T03:12:47;16.60;;;10.77;;
26157;SDS011;67284;44.782;10.282;2024-03-08T03:17:46;20.10;;;11.45;;
26157;SDS011;67284;44.782;10.282;2024-03-08T03:22:40;16.23;;;10.32;;
26157;SDS011;67284;44.782;10.282;2024-03-08T03:27:32;25.20;;;14.27;;
26157;SDS011;67284;44.782;10.282;2024-03-08T03:32:24;28.42;;;14.35;;
26157;SDS011;67284;44.782;10.282;2024-03-08T03:37:16;28.75;;;14.68;;
26157;SDS011;67284;44.782;10.282;2024-03-08T03:42:09;29.77;;;14.82;;
26157;SDS011;67284;44.782;10.282;2024-03-08T03:47:01;34.92;;;17.38;;
26157;SDS011;67284;44.782;10.282;2024-03-08T03:51:53;34.25;;;16.60;;
26157;SDS011;67284;44.782;10.282;2024-03-08T03:56:45;36.63;;;17.67;;
26157;SDS011;67284;44.782;10.282;2024-03-08T04:01:41;29.75;;;15.68;;
26157;SDS011;67284;44.782;10.282;2024-03-08T04:06:33;30.55;;;17.15;;
26157;SDS011;67284;44.782;10.282;2024-03-08T04:11:25;36.33;;;16.98;;
26157;SDS011;67284;44.782;10.282;2024-03-08T04:16:17;34.15;;;16.33;;
26157;SDS011;67284;44.782;10.282;2024-03-08T04:21:10;36.08;;;17.73;;
26157;SDS011;67284;44.782;10.282;2024-03-08T04:26:03;31.77;;;17.17;;
26157;SDS011;67284;44.782;10.282;2024-03-08T04:30:56;35.13;;;17.77;;
26157;SDS011;67284;44.782;10.282;2024-03-08T04:35:47;37.35;;;17.70;;
26157;SDS011;67284;44.782;10.282;2024-03-08T04:40:39;37.70;;;18.13;;
26157;SDS011;67284;44.782;10.282;2024-03-08T04:45:31;40.90;;;20.55;;
26157;SDS011;67284;44.782;10.282;2024-03-08T04:50:23;41.17;;;18.65;;
26157;SDS011;67284;44.782;10.282;2024-03-08T04:55:15;42.55;;;20.30;;
26157;SDS011;67284;44.782;10.282;2024-03-08T05:00:07;38.92;;;20.95;;
26157;SDS011;67284;44.782;10.282;2024-03-08T05:05:03;46.90;;;22.15;;
26157;SDS011;67284;44.782;10.282;2024-03-08T05:09:57;45.63;;;21.50;;
26157;SDS011;67284;44.782;10.282;2024-03-08T05:14:49;50.85;;;22.63;;
26157;SDS011;67284;44.782;10.282;2024-03-08T05:19:41;40.00;;;21.55;;
26157;SDS011;67284;44.782;10.282;2024-03-08T05:24:33;50.83;;;22.15;;
26157;SDS011;67284;44.782;10.282;2024-03-08T05:29:26;46.50;;;22.52;;
26157;SDS011;67284;44.782;10.282;2024-03-08T05:34:18;46.47;;;21.13;;
26157;SDS011;67284;44.782;10.282;2024-03-08T05:39:11;47.70;;;23.95;;
26157;SDS011;67284;44.782;10.282;2024-03-08T05:44:06;51.75;;;23.88;;
26157;SDS011;67284;44.782;10.282;2024-03-08T05:48:58;50.90;;;23.38;;
26157;SDS011;67284;44.782;10.282;2024-03-08T05:53:57;49.45;;;22.35;;
26157;SDS011;67284;44.782;10.282;2024-03-08T05:58:49;45.90;;;22.15;;
26157;SDS011;67284;44.782;10.282;2024-03-08T06:03:41;55.30;;;25.83;;
26157;SDS011;67284;44.782;10.282;2024-03-08T06:08:36;52.25;;;22.98;;
26157;SDS011;67284;44.782;10.282;2024-03-08T06:13:28;43.55;;;21.25;;
26157;SDS011;67284;44.782;10.282;2024-03-08T06:18:22;39.10;;;18.02;;
26157;SDS011;67284;44.782;10.282;2024-03-08T06:23:14;35.38;;;19.25;;
26157;SDS011;67284;44.782;10.282;2024-03-08T06:28:09;36.90;;;16.27;;
26157;SDS011;67284;44.782;10.282;2024-03-08T06:33:01;38.80;;;18.17;;
26157;SDS011;67284;44.782;10.282;2024-03-08T06:37:54;34.88;;;16.73;;
26157;SDS011;67284;44.782;10.282;2024-03-08T06:42:45;35.30;;;16.48;;
26157;SDS011;67284;44.782;10.282;2024-03-08T06:47:38;39.28;;;16.55;;
26157;SDS011;67284;44.782;10.282;2024-03-08T06:52:30;35.28;;;16.45;;
26157;SDS011;67284;44.782;10.282;2024-03-08T06:57:22;35.67;;;15.15;;
26157;SDS011;67284;44.782;10.282;2024-03-08T07:02:14;32.05;;;14.55;;
26157;SDS011;67284;44.782;10.282;2024-03-08T07:07:06;36.38;;;15.93;;
26157;SDS011;67284;44.782;10.282;2024-03-08T07:12:01;28.17;;;13.38;;
26157;SDS011;67284;44.782;10.282;2024-03-08T07:16:53;31.60;;;13.80;;
26157;SDS011;67284;44.782;10.282;2024-03-08T07:21:45;25.58;;;13.38;;
26157;SDS011;67284;44.782;10.282;2024-03-08T07:26:39;38.97;;;14.45;;
26157;SDS011;67284;44.782;10.282;2024-03-08T07:31:31;35.17;;;14.93;;
26157;SDS011;67284;44.782;10.282;2024-03-08T07:36:28;34.60;;;16.63;;
26157;SDS011;67284;44.782;10.282;2024-03-08T07:41:20;35.67;;;17.00;;
26157;SDS011;67284;44.782;10.282;2024-03-08T07:46:12;50.83;;;18.88;;
26157;SDS011;67284;44.782;10.282;2024-03-08T07:51:05;42.58;;;20.95;;
26157;SDS011;67284;44.782;10.282;2024-03-08T07:55:57;39.78;;;17.27;;
26157;SDS011;67284;44.782;10.282;2024-03-08T08:00:49;41.90;;;18.17;;
26157;SDS011;67284;44.782;10.282;2024-03-08T08:05:41;44.53;;;19.67;;
26157;SDS011;67284;44.782;10.282;2024-03-08T08:10:33;43.97;;;19.60;;
26157;SDS011;67284;44.782;10.282;2024-03-08T08:15:25;44.22;;;21.05;;
26157;SDS011;67284;44.782;10.282;2024-03-08T08:20:17;46.83;;;20.90;;
26157;SDS011;67284;44.782;10.282;2024-03-08T08:25:10;42.90;;;19.95;;
26157;SDS011;67284;44.782;10.282;2024-03-08T08:30:05;46.30;;;20.70;;
26157;SDS011;67284;44.782;10.282;2024-03-08T08:35:00;45.15;;;19.00;;
26157;SDS011;67284;44.782;10.282;2024-03-08T08:39:51;43.88;;;19.58;;
26157;SDS011;67284;44.782;10.282;2024-03-08T08:44:44;40.45;;;20.52;;
26157;SDS011;67284;44.782;10.282;2024-03-08T08:49:36;39.38;;;19.98;;
26157;SDS011;67284;44.782;10.282;2024-03-08T08:54:28;43.33;;;21.02;;
26157;SDS011;67284;44.782;10.282;2024-03-08T08:59:20;44.53;;;22.92;;
26157;SDS011;67284;44.782;10.282;2024-03-08T09:04:14;43.35;;;21.10;;
26157;SDS011;67284;44.782;10.282;2024-03-08T09:09:06;42.97;;;22.05;;
26157;SDS011;67284;44.782;10.282;2024-03-08T09:13:57;41.50;;;20.90;;
26157;SDS011;67284;44.782;10.282;2024-03-08T09:18:49;46.15;;;20.50;;
26157;SDS011;67284;44.782;10.282;2024-03-08T09:23:41;46.60;;;22.35;;
26157;SDS011;67284;44.782;10.282;2024-03-08T09:28:36;42.35;;;22.77;;
26157;SDS011;67284;44.782;10.282;2024-03-08T09:33:28;44.58;;;21.30;;
26157;SDS011;67284;44.782;10.282;2024-03-08T09:38:20;40.15;;;20.65;;
26157;SDS011;67284;44.782;10.282;2024-03-08T09:43:12;41.95;;;20.70;;
26157;SDS011;67284;44.782;10.282;2024-03-08T09:48:04;35.33;;;19.10;;
26157;SDS011;67284;44.782;10.282;2024-03-08T09:52:56;39.95;;;21.05;;
26157;SDS011;67284;44.782;10.282;2024-03-08T09:57:51;38.45;;;20.17;;
26157;SDS011;67284;44.782;10.282;2024-03-08T10:03:02;36.55;;;18.45;;
26157;SDS011;67284;44.782;10.282;2024-03-08T10:07:54;35.47;;;18.77;;
26157;SDS011;67284;44.782;10.282;2024-03-08T10:12:46;38.45;;;19.40;;
26157;SDS011;67284;44.782;10.282;2024-03-08T10:17:38;35.13;;;19.55;;
26157;SDS011;67284;44.782;10.282;2024-03-08T10:22:31;33.05;;;16.50;;
26157;SDS011;67284;44.782;10.282;2024-03-08T10:27:23;28.17;;;17.02;;
26157;SDS011;67284;44.782;10.282;2024-03-08T10:32:17;31.77;;;17.30;;
26157;SDS011;67284;44.782;10.282;2024-03-08T10:37:12;32.08;;;16.23;;
26157;SDS011;67284;44.782;10.282;2024-03-08T10:42:09;35.33;;;17.58;;
26157;SDS011;67284;44.782;10.282;2024-03-08T10:52:16;28.65;;;16.05;;
26157;SDS011;67284;44.782;10.282;2024-03-08T10:57:10;28.52;;;16.83;;
26157;SDS011;67284;44.782;10.282;2024-03-08T11:02:07;35.95;;;18.10;;
26157;SDS011;67284;44.782;10.282;2024-03-08T11:07:00;34.33;;;20.45;;
26157;SDS011;67284;44.782;10.282;2024-03-08T11:12:18;28.02;;;17.00;;
26157;SDS011;67284;44.782;10.282;2024-03-08T11:22:26;29.40;;;17.52;;
26157;SDS011;67284;44.782;10.282;2024-03-08T11:27:28;26.23;;;16.98;;
26157;SDS011;67284;44.782;10.282;2024-03-08T11:32:20;30.45;;;18.33;;
26157;SDS011;67284;44.782;10.282;2024-03-08T11:37:14;28.08;;;17.27;;
26157;SDS011;67284;44.782;10.282;2024-03-08T11:42:07;26.10;;;15.77;;
26157;SDS011;67284;44.782;10.282;2024-03-08T11:47:00;25.65;;;15.90;;
26157;SDS011;67284;44.782;10.282;2024-03-08T11:51:52;24.58;;;15.35;;
26157;SDS011;67284;44.782;10.282;2024-03-08T11:56:45;26.98;;;16.13;;
26157;SDS011;67284;44.782;10.282;2024-03-08T12:01:39;27.20;;;16.40;;
26157;SDS011;67284;44.782;10.282;2024-03-08T12:06:41;27.92;;;17.77;;
26157;SDS011;67284;44.782;10.282;2024-03-08T12:11:33;23.38;;;15.63;;
26157;SDS011;67284;44.782;10.282;2024-03-08T12:16:26;25.65;;;15.48;;
26157;SDS011;67284;44.782;10.282;2024-03-08T12:21:19;26.52;;;14.73;;
26157;SDS011;67284;44.782;10.282;2024-03-08T12:26:17;22.17;;;15.07;;
26157;SDS011;67284;44.782;10.282;2024-03-08T12:31:15;24.75;;;15.02;;
26157;SDS011;67284;44.782;10.282;2024-03-08T12:36:17;20.50;;;13.00;;
26157;SDS011;67284;44.782;10.282;2024-03-08T12:41:10;18.08;;;12.80;;
26157;SDS011;67284;44.782;10.282;2024-03-08T12:46:01;28.38;;;18.63;;
26157;SDS011;67284;44.782;10.282;2024-03-08T12:50:57;24.00;;;14.95;;
26157;SDS011;67284;44.782;10.282;2024-03-08T12:55:49;19.33;;;13.30;;
26157;SDS011;67284;44.782;10.282;2024-03-08T13:00:42;19.48;;;12.45;;
26157;SDS011;67284;44.782;10.282;2024-03-08T13:05:35;19.65;;;14.48;;
26157;SDS011;67284;44.782;10.282;2024-03-08T13:10:31;24.02;;;17.30;;
26157;SDS011;67284;44.782;10.282;2024-03-08T13:15:23;19.60;;;13.68;;
26157;SDS011;67284;44.782;10.282;2024-03-08T13:20:15;21.00;;;13.32;;
26157;SDS011;67284;44.782;10.282;2024-03-08T13:25:21;25.13;;;14.07;;
26157;SDS011;67284;44.782;10.282;2024-03-08T13:30:13;18.30;;;13.25;;
26157;SDS011;67284;44.782;10.282;2024-03-08T13:35:05;19.02;;;12.95;;
26157;SDS011;67284;44.782;10.282;2024-03-08T13:40:04;20.67;;;12.93;;
26157;SDS011;67284;44.782;10.282;2024-03-08T13:44:57;20.42;;;13.35;;
26157;SDS011;67284;44.782;10.282;2024-03-08T13:49:49;20.63;;;11.55;;
26157;SDS011;67284;44.782;10.282;2024-03-08T13:54:42;22.52;;;12.98;;
26157;SDS011;67284;44.782;10.282;2024-03-08T13:59:34;20.05;;;13.52;;
26157;SDS011;67284;44.782;10.282;2024-03-08T14:04:26;26.27;;;13.95;;
26157;SDS011;67284;44.782;10.282;2024-03-08T14:09:19;24.42;;;14.55;;
26157;SDS011;67284;44.782;10.282;2024-03-08T14:14:11;23.48;;;13.85;;
26157;SDS011;67284;44.782;10.282;2024-03-08T14:19:06;21.13;;;13.77;;
26157;SDS011;67284;44.782;10.282;2024-03-08T14:23:58;26.55;;;15.05;;
26157;SDS011;67284;44.782;10.282;2024-03-08T14:28:50;22.98;;;14.35;;
26157;SDS011;67284;44.782;10.282;2024-03-08T14:33:46;23.30;;;14.98;;
26157;SDS011;67284;44.782;10.282;2024-03-08T14:38:41;25.08;;;15.55;;
26157;SDS011;67284;44.782;10.282;2024-03-08T14:43:32;20.10;;;13.80;;
26157;SDS011;67284;44.782;10.282;2024-03-08T14:48:24;32.97;;;19.42;;
26157;SDS011;67284;44.782;10.282;2024-03-08T14:53:16;28.30;;;15.10;;
26157;SDS011;67284;44.782;10.282;2024-03-08T14:58:09;31.48;;;19.77;;
26157;SDS011;67284;44.782;10.282;2024-03-08T15:03:02;24.90;;;15.65;;
26157;SDS011;67284;44.782;10.282;2024-03-08T15:07:56;22.70;;;15.63;;
26157;SDS011;67284;44.782;10.282;2024-03-08T15:12:50;21.70;;;13.40;;
26157;SDS011;67284;44.782;10.282;2024-03-08T15:17:46;20.95;;;14.05;;
26157;SDS011;67284;44.782;10.282;2024-03-08T15:22:38;27.45;;;18.67;;
26157;SDS011;67284;44.782;10.282;2024-03-08T15:27:31;24.75;;;14.95;;
26157;SDS011;67284;44.782;10.282;2024-03-08T15:32:23;28.55;;;15.77;;
26157;SDS011;67284;44.782;10.282;2024-03-08T15:37:15;23.80;;;14.93;;
26157;SDS011;67284;44.782;10.282;2024-03-08T15:42:08;24.13;;;14.93;;
26157;SDS011;67284;44.782;10.282;2024-03-08T15:47:02;24.27;;;14.23;;
26157;SDS011;67284;44.782;10.282;2024-03-08T15:51:54;22.60;;;15.10;;
26157;SDS011;67284;44.782;10.282;2024-03-08T15:56:46;23.20;;;13.63;;
26157;SDS011;67284;44.782;10.282;2024-03-08T16:01:38;21.33;;;12.68;;
26157;SDS011;67284;44.782;10.282;2024-03-08T16:06:30;25.90;;;14.02;;
26157;SDS011;67284;44.782;10.282;2024-03-08T16:11:22;22.70;;;13.25;;
26157;SDS011;67284;44.782;10.282;2024-03-08T16:16:14;24.48;;;13.30;;
26157;SDS011;67284;44.782;10.282;2024-03-08T16:21:06;23.20;;;14.30;;
26157;SDS011;67284;44.782;10.282;2024-03-08T16:25:59;28.27;;;14.80;;
26157;SDS011;67284;44.782;10.282;2024-03-08T16:30:51;20.15;;;13.15;;
26157;SDS011;67284;44.782;10.282;2024-03-08T16:35:46;29.75;;;16.33;;
26157;SDS011;67284;44.782;10.282;2024-03-08T16:40:38;24.30;;;14.43;;
26157;SDS011;67284;44.782;10.282;2024-03-08T16:45:31;28.65;;;17.33;;
26157;SDS011;67284;44.782;10.282;2024-03-08T16:50:23;30.02;;;16.95;;
26157;SDS011;67284;44.782;10.282;2024-03-08T16:55:15;21.75;;;14.27;;
26157;SDS011;67284;44.782;10.282;2024-03-08T17:00:07;25.27;;;14.98;;
26157;SDS011;67284;44.782;10.282;2024-03-08T17:05:05;32.20;;;15.77;;
26157;SDS011;67284;44.782;10.282;2024-03-08T17:09:57;23.88;;;14.88;;
26157;SDS011;67284;44.782;10.282;2024-03-08T17:14:49;26.75;;;13.07;;
26157;SDS011;67284;44.782;10.282;2024-03-08T17:19:41;27.33;;;15.63;;
26157;SDS011;67284;44.782;10.282;2024-03-08T17:24:33;28.00;;;16.00;;
26157;SDS011;67284;44.782;10.282;2024-03-08T17:29:25;30.20;;;15.60;;
26157;SDS011;67284;44.782;10.282;2024-03-08T17:34:17;24.80;;;13.00;;
26157;SDS011;67284;44.782;10.282;2024-03-08T17:39:10;25.90;;;14.98;;
26157;SDS011;67284;44.782;10.282;2024-03-08T17:44:09;26.35;;;14.85;;
26157;SDS011;67284;44.782;10.282;2024-03-08T17:49:01;33.10;;;16.10;;
26157;SDS011;67284;44.782;10.282;2024-03-08T17:53:54;25.25;;;14.13;;
26157;SDS011;67284;44.782;10.282;2024-03-08T17:58:46;25.85;;;14.73;;
26157;SDS011;67284;44.782;10.282;2024-03-08T18:03:38;27.55;;;15.45;;
26157;SDS011;67284;44.782;10.282;2024-03-08T18:08:32;26.83;;;15.02;;
26157;SDS011;67284;44.782;10.282;2024-03-08T18:13:23;33.13;;;18.05;;
26157;SDS011;67284;44.782;10.282;2024-03-08T18:18:15;27.00;;;15.57;;
26157;SDS011;67284;44.782;10.282;2024-03-08T18:23:10;28.00;;;17.55;;
26157;SDS011;67284;44.782;10.282;2024-03-08T18:28:04;30.52;;;18.20;;
26157;SDS011;67284;44.782;10.282;2024-03-08T18:33:00;30.85;;;17.45;;
26157;SDS011;67284;44.782;10.282;2024-03-08T18:37:52;30.00;;;15.77;;
26157;SDS011;67284;44.782;10.282;2024-03-08T18:42:44;22.25;;;15.00;;
26157;SDS011;67284;44.782;10.282;2024-03-08T18:47:39;26.98;;;15.50;;
26157;SDS011;67284;44.782;10.282;2024-03-08T18:52:32;31.10;;;18.20;;
26157;SDS011;67284;44.782;10.282;2024-03-08T18:57:24;31.63;;;16.58;;
26157;SDS011;67284;44.782;10.282;2024-03-08T19:02:20;30.08;;;17.42;;
26157;SDS011;67284;44.782;10.282;2024-03-08T19:07:13;31.42;;;19.95;;
26157;SDS011;67284;44.782;10.282;2024-03-08T19:12:05;31.60;;;17.15;;
26157;SDS011;67284;44.782;10.282;2024-03-08T19:17:04;25.38;;;15.68;;
26157;SDS011;67284;44.782;10.282;2024-03-08T19:22:02;33.60;;;15.93;;
26157;SDS011;67284;44.782;10.282;2024-03-08T19:26:56;30.08;;;15.77;;
26157;SDS011;67284;44.782;10.282;2024-03-08T19:31:48;28.80;;;16.00;;
26157;SDS011;67284;44.782;10.282;2024-03-08T19:36:41;29.83;;;15.95;;
26157;SDS011;67284;44.782;10.282;2024-03-08T19:41:33;30.92;;;16.58;;
26157;SDS011;67284;44.782;10.282;2024-03-08T19:46:25;26.08;;;15.00;;
26157;SDS011;67284;44.782;10.282;2024-03-08T19:51:18;29.75;;;17.17;;
26157;SDS011;67284;44.782;10.282;2024-03-08T19:56:10;27.85;;;15.88;;
26157;SDS011;67284;44.782;10.282;2024-03-08T20:01:02;31.67;;;18.88;;
26157;SDS011;67284;44.782;10.282;2024-03-08T20:05:55;35.08;;;18.02;;
26157;SDS011;67284;44.782;10.282;2024-03-08T20:10:48;37.25;;;22.30;;
26157;SDS011;67284;44.782;10.282;2024-03-08T20:15:42;32.50;;;20.23;;
26157;SDS011;67284;44.782;10.282;2024-03-08T20:20:39;31.90;;;17.20;;
26157;SDS011;67284;44.782;10.282;2024-03-08T20:25:34;29.13;;;18.60;;
26157;SDS011;67284;44.782;10.282;2024-03-08T20:30:29;29.75;;;17.65;;
26157;SDS011;67284;44.782;10.282;2024-03-08T20:35:21;29.30;;;18.38;;
26157;SDS011;67284;44.782;10.282;2024-03-08T20:40:15;34.80;;;18.95;;
26157;SDS011;67284;44.782;10.282;2024-03-08T20:45:07;39.58;;;17.33;;
26157;SDS011;67284;44.782;10.282;2024-03-08T20:50:00;31.30;;;17.83;;
26157;SDS011;67284;44.782;10.282;2024-03-08T20:54:53;32.35;;;18.70;;
26157;SDS011;67284;44.782;10.282;2024-03-08T20:59:45;30.20;;;16.38;;
26157;SDS011;67284;44.782;10.282;2024-03-08T21:04:37;39.40;;;18.33;;
26157;SDS011;67284;44.782;10.282;2024-03-08T21:09:33;31.38;;;16.73;;
26157;SDS011;67284;44.782;10.282;2024-03-08T21:14:27;31.95;;;16.92;;
26157;SDS011;67284;44.782;10.282;2024-03-08T21:19:19;30.33;;;17.65;;
26157;SDS011;67284;44.782;10.282;2024-03-08T21:24:11;30.80;;;18.63;;
26157;SDS011;67284;44.782;10.282;2024-03-08T21:29:04;31.20;;;18.27;;
26157;SDS011;67284;44.782;10.282;2024-03-08T21:33:56;35.17;;;19.73;;
26157;SDS011;67284;44.782;10.282;2024-03-08T21:38:48;46.90;;;25.52;;
26157;SDS011;67284;44.782;10.282;2024-03-08T21:43:40;32.35;;;18.08;;
26157;SDS011;67284;44.782;10.282;2024-03-08T21:48:32;34.03;;;18.95;;
26157;SDS011;67284;44.782;10.282;2024-03-08T21:53:24;31.63;;;18.60;;
26157;SDS011;67284;44.782;10.282;2024-03-08T21:58:25;33.08;;;20.02;;
26157;SDS011;67284;44.782;10.282;2024-03-08T22:03:17;32.50;;;18.58;;
26157;SDS011;67284;44.782;10.282;2024-03-08T22:08:09;33.85;;;18.90;;
26157;SDS011;67284;44.782;10.282;2024-03-08T22:13:01;32.60;;;17.58;;
26157;SDS011;67284;44.782;10.282;2024-03-08T22:17:53;28.85;;;17.15;;
26157;SDS011;67284;44.782;10.282;2024-03-08T22:22:48;32.58;;;17.92;;
26157;SDS011;67284;44.782;10.282;2024-03-08T22:27:41;30.95;;;16.33;;
26157;SDS011;67284;44.782;10.282;2024-03-08T22:32:33;33.78;;;18.27;;
26157;SDS011;67284;44.782;10.282;2024-03-08T22:37:25;25.80;;;15.98;;
26157;SDS011;67284;44.782;10.282;2024-03-08T22:42:17;32.38;;;17.67;;
26157;SDS011;67284;44.782;10.282;2024-03-08T22:47:09;28.65;;;16.73;;
26157;SDS011;67284;44.782;10.282;2024-03-08T22:52:00;30.25;;;17.25;;
26157;SDS011;67284;44.782;10.282;2024-03-08T22:56:54;34.58;;;19.40;;
26157;SDS011;67284;44.782;10.282;2024-03-08T23:01:48;29.83;;;18.15;;
26157;SDS011;67284;44.782;10.282;2024-03-08T23:06:41;30.55;;;19.40;;
26157;SDS011;67284;44.782;10.282;2024-03-08T23:11:34;30.77;;;18.63;;
26157;SDS011;67284;44.782;10.282;2024-03-08T23:16:26;31.67;;;17.40;;
26157;SDS011;67284;44.782;10.282;2024-03-08T23:21:19;31.27;;;17.83;;
26157;SDS011;67284;44.782;10.282;2024-03-08T23:26:11;30.95;;;17.70;;
26157;SDS011;67284;44.782;10.282;2024-03-08T23:31:03;36.25;;;19.25;;
26157;SDS011;67284;44.782;10.282;2024-03-08T23:35:57;32.97;;;18.52;;
26157;SDS011;67284;44.782;10.282;2024-03-08T23:40:49;32.45;;;18.55;;
26157;SDS011;67284;44.782;10.282;2024-03-08T23:45:41;34.80;;;19.08;;
26157;SDS011;67284;44.782;10.282;2024-03-08T23:50:33;31.92;;;17.85;;
26157;SDS011;67284;44.782;10.282;2024-03-08T23:55:26;31.58;;;18.67;;
